createdAt,value
2018-08-17T00:01:21.006Z,94852.52
2018-08-17T00:03:49.805Z,94851.72
2018-08-17T00:06:18.616Z,94850.38
2018-08-17T00:08:47.538Z,94849.03
2018-08-17T00:11:16.788Z,94851.15
2018-08-17T00:13:45.853Z,94855.42
2018-08-17T00:16:14.672Z,94853.54
2018-08-17T00:18:43.533Z,94854.36
2018-08-17T00:21:12.425Z,94858.36
2018-08-17T00:23:41.293Z,94868.75
2018-08-17T00:26:10.454Z,94871.11
2018-08-17T00:28:39.246Z,94871.89
2018-08-17T00:31:08.051Z,94871.37
2018-08-17T00:33:36.828Z,94868.70
2018-08-17T00:36:05.758Z,94862.30
2018-08-17T00:38:34.650Z,94864.70
2018-08-17T00:41:03.533Z,94864.70
2018-08-17T00:43:32.315Z,94862.80
2018-08-17T00:46:01.502Z,94865.75
2018-08-17T00:48:30.335Z,94862.28
2018-08-17T00:50:59.108Z,94862.28
2018-08-17T00:53:27.964Z,94866.24
2018-08-17T00:55:56.784Z,94865.20
2018-08-17T00:58:25.680Z,94869.18
2018-08-17T01:00:54.486Z,94871.84
2018-08-17T01:03:23.364Z,94870.77
2018-08-17T01:05:52.177Z,94870.23
2018-08-17T01:08:21.026Z,94865.20
2018-08-17T01:10:50.123Z,94868.10
2018-08-17T01:13:19.021Z,94872.63
2018-08-17T01:15:47.944Z,94875.82
2018-08-17T01:18:16.887Z,94874.47
2018-08-17T01:20:45.804Z,94872.59
2018-08-17T01:23:14.650Z,94864.83
2018-08-17T01:25:43.488Z,94868.05
2018-08-17T01:28:12.278Z,94865.38
2018-08-17T01:30:41.269Z,94868.83
2018-08-17T01:33:10.567Z,94869.61
2018-08-17T01:35:39.399Z,94867.77
2018-08-17T01:38:08.247Z,94870.42
2018-08-17T01:40:37.026Z,94871.20
2018-08-17T01:43:06.646Z,94875.20
2018-08-17T01:45:35.521Z,94869.05
2018-08-17T01:48:04.343Z,94866.39
2018-08-17T01:50:33.238Z,94862.67
2018-08-17T01:53:02.105Z,94870.41
2018-08-17T01:55:30.916Z,94873.08
2018-08-17T01:57:59.690Z,94867.22
2018-08-17T02:00:28.511Z,94869.89
2018-08-17T02:02:57.291Z,94864.27
2018-08-17T02:05:26.525Z,94863.15
2018-08-17T02:07:55.338Z,94868.21
2018-08-17T02:10:24.249Z,94865.76
2018-08-17T02:12:53.034Z,94866.47
2018-08-17T02:15:21.938Z,94864.54
2018-08-17T02:17:50.746Z,94862.16
2018-08-17T02:20:19.553Z,94866.95
2018-08-17T02:22:48.344Z,94864.56
2018-08-17T02:25:17.184Z,94862.95
2018-08-17T02:27:45.962Z,94867.23
2018-08-17T02:30:14.771Z,94868.30
2018-08-17T02:32:43.536Z,94870.70
2018-08-17T02:35:12.340Z,94871.53
2018-08-17T02:37:41.150Z,94867.28
2018-08-17T02:40:10.359Z,94869.14
2018-08-17T02:42:39.144Z,94872.41
2018-08-17T02:45:08.004Z,94871.02
2018-08-17T02:47:36.858Z,94870.81
2018-08-17T02:50:06.503Z,94872.05
2018-08-17T02:52:35.287Z,94872.06
2018-08-17T02:55:04.303Z,94875.52
2018-08-17T02:57:33.103Z,94870.17
2018-08-17T03:00:01.892Z,94869.88
2018-08-17T03:02:30.659Z,94869.61
2018-08-17T03:04:59.504Z,94865.55
2018-08-17T03:07:28.265Z,94867.36
2018-08-17T03:09:57.124Z,94864.98
2018-08-17T03:12:26.127Z,94868.59
2018-08-17T03:14:55.031Z,94867.52
2018-08-17T03:17:24.039Z,94868.88
2018-08-17T03:19:53.002Z,94877.66
2018-08-17T03:22:21.973Z,94881.14
2018-08-17T03:24:50.914Z,94886.22
2018-08-17T03:27:19.853Z,94887.55
2018-08-17T03:29:48.766Z,94886.22
2018-08-17T03:32:17.622Z,94883.55
2018-08-17T03:34:51.855Z,94881.17
2018-08-17T03:37:21.395Z,94883.61
2018-08-17T03:39:50.533Z,94887.88
2018-08-17T03:42:19.430Z,94887.92
2018-08-17T03:44:48.261Z,94892.17
2018-08-17T03:47:17.164Z,94887.90
2018-08-17T03:49:45.948Z,94895.89
2018-08-17T03:52:14.837Z,94896.16
2018-08-17T03:54:43.647Z,94886.06
2018-08-17T03:57:12.443Z,94890.08
2018-08-17T03:59:41.403Z,94894.09
2018-08-17T04:02:10.211Z,94895.97
2018-08-17T04:04:39.084Z,94898.64
2018-08-17T04:07:07.870Z,94894.92
2018-08-17T04:09:36.665Z,94896.82
2018-08-17T04:12:05.559Z,94901.73
2018-08-17T04:14:34.328Z,94898.31
2018-08-17T04:17:03.953Z,94898.03
2018-08-17T04:19:32.762Z,94903.42
2018-08-17T04:22:01.606Z,94909.34
2018-08-17T04:24:30.473Z,94905.39
2018-08-17T04:26:59.293Z,94901.95
2018-08-17T04:29:28.070Z,94900.11
2018-08-17T04:31:57.830Z,94905.48
2018-08-17T04:34:26.624Z,94898.55
2018-08-17T04:36:55.386Z,94904.97
2018-08-17T04:39:24.179Z,94906.30
2018-08-17T04:41:53.054Z,94906.53
2018-08-17T04:44:21.965Z,94903.61
2018-08-17T04:46:50.774Z,94909.20
2018-08-17T04:49:19.839Z,94903.07
2018-08-17T04:51:48.759Z,94903.88
2018-08-17T04:54:17.557Z,94904.14
2018-08-17T04:56:46.403Z,94907.88
2018-08-17T04:59:15.257Z,94915.32
2018-08-17T05:01:44.044Z,94912.95
2018-08-17T05:04:12.870Z,94913.48
2018-08-17T05:06:41.703Z,94915.59
2018-08-17T05:09:10.501Z,94926.30
2018-08-17T05:11:39.290Z,94920.69
2018-08-17T05:14:08.150Z,94922.00
2018-08-17T05:16:36.997Z,94924.37
2018-08-17T05:19:05.994Z,94925.16
2018-08-17T05:21:34.891Z,94925.41
2018-08-17T05:24:03.923Z,94923.83
2018-08-17T05:26:32.742Z,94926.22
2018-08-17T05:29:01.538Z,94932.64
2018-08-17T05:31:30.336Z,94927.31
2018-08-17T05:33:59.154Z,94932.66
2018-08-17T05:36:28.006Z,94928.96
2018-08-17T05:38:56.828Z,94927.68
2018-08-17T05:41:26.010Z,94930.92
2018-08-17T05:43:54.845Z,94930.97
2018-08-17T05:46:23.755Z,94923.79
2018-08-17T05:48:52.861Z,94923.52
2018-08-17T05:51:21.674Z,94924.37
2018-08-17T05:53:50.971Z,94916.06
2018-08-17T05:56:19.750Z,94930.98
2018-08-17T05:58:49.159Z,94928.23
2018-08-17T06:01:18.686Z,94926.81
2018-08-17T06:03:47.515Z,94931.50
2018-08-17T06:06:16.335Z,94932.56
2018-08-17T06:08:45.284Z,94929.39
2018-08-17T06:11:14.323Z,94924.55
2018-08-17T06:13:43.170Z,94924.75
2018-08-17T06:16:12.026Z,94924.50
2018-08-17T06:18:40.819Z,94927.67
2018-08-17T06:21:09.751Z,94930.03
2018-08-17T06:23:38.551Z,94922.18
2018-08-17T06:26:07.503Z,94924.71
2018-08-17T06:28:36.351Z,94922.57
2018-08-17T06:31:05.401Z,94921.26
2018-08-17T06:33:34.228Z,94927.88
2018-08-17T06:36:03.150Z,94925.64
2018-08-17T06:38:32.066Z,94922.57
2018-08-17T06:41:01.098Z,94918.44
2018-08-17T06:43:30.017Z,94925.34
2018-08-17T06:45:58.831Z,94928.59
2018-08-17T06:48:27.712Z,94932.20
2018-08-17T06:50:56.602Z,94927.92
2018-08-17T06:53:25.496Z,94930.30
2018-08-17T06:55:54.256Z,94931.08
2018-08-17T06:58:23.048Z,94932.72
2018-08-17T07:00:52.330Z,94934.97
2018-08-17T07:03:21.742Z,94938.72
2018-08-17T07:05:50.981Z,94939.63
2018-08-17T07:08:19.803Z,94938.02
2018-08-17T07:10:48.979Z,94941.33
2018-08-17T07:13:17.864Z,94941.06
2018-08-17T07:15:46.779Z,94935.06
2018-08-17T07:18:15.576Z,94942.05
2018-08-17T07:20:44.433Z,94941.70
2018-08-17T07:23:13.309Z,94942.56
2018-08-17T07:25:42.408Z,94938.62
2018-08-17T07:28:11.338Z,94939.24
2018-08-17T07:30:40.362Z,94938.95
2018-08-17T07:33:09.425Z,94938.08
2018-08-17T07:35:43.213Z,94939.53
2018-08-17T07:38:12.142Z,94943.23
2018-08-17T07:40:41.186Z,94945.95
2018-08-17T07:43:10.000Z,94946.29
2018-08-17T07:45:39.027Z,94946.95
2018-08-17T07:48:07.990Z,94947.22
2018-08-17T07:50:36.942Z,94948.30
2018-08-17T07:53:05.732Z,94946.64
2018-08-17T07:55:34.931Z,94945.25
2018-08-17T07:58:03.815Z,94942.64
2018-08-17T08:00:32.630Z,94941.64
2018-08-17T08:03:01.471Z,94938.52
2018-08-17T08:05:30.293Z,94942.20
2018-08-17T08:07:59.090Z,94940.95
2018-08-17T08:10:27.943Z,94942.00
2018-08-17T08:12:56.731Z,94939.51
2018-08-17T08:15:25.636Z,94937.88
2018-08-17T08:17:54.436Z,94934.06
2018-08-17T08:20:30.722Z,94925.87
2018-08-17T08:23:10.488Z,94921.97
2018-08-17T08:25:39.690Z,94923.38
2018-08-17T08:28:08.532Z,94920.53
2018-08-17T08:30:37.322Z,94915.73
2018-08-17T08:33:06.247Z,94918.94
2018-08-17T08:35:35.070Z,94923.09
2018-08-17T08:38:03.980Z,94916.89
2018-08-17T08:40:32.907Z,94913.05
2018-08-17T08:43:01.781Z,94908.22
2018-08-17T08:45:30.751Z,94903.89
2018-08-17T08:47:59.821Z,94909.64
2018-08-17T08:50:28.668Z,94907.84
2018-08-17T08:52:57.592Z,94904.50
2018-08-17T08:55:26.388Z,94903.00
2018-08-17T08:57:55.239Z,94900.50
2018-08-17T09:00:24.049Z,94905.12
2018-08-17T09:02:52.863Z,94900.03
2018-08-17T09:05:21.695Z,94894.21
2018-08-17T09:07:50.604Z,94894.65
2018-08-17T09:10:19.431Z,94900.80
2018-08-17T09:12:48.919Z,94898.50
2018-08-17T09:15:17.771Z,94895.30
2018-08-17T09:17:46.579Z,94892.28
2018-08-17T09:20:16.569Z,94891.38
2018-08-17T09:22:45.584Z,94893.44
2018-08-17T09:25:14.408Z,94889.20
2018-08-17T09:27:43.282Z,94882.09
2018-08-17T09:30:13.699Z,94883.67
2018-08-17T09:32:42.708Z,94882.88
2018-08-17T09:35:12.715Z,94882.37
2018-08-17T09:37:41.587Z,94882.41
2018-08-17T09:40:11.378Z,94880.00
2018-08-17T09:42:40.204Z,94870.09
2018-08-17T09:45:10.966Z,94874.88
2018-08-17T09:47:39.803Z,94876.98
2018-08-17T09:50:11.203Z,94869.31
2018-08-17T09:52:40.248Z,94868.64
2018-08-17T09:55:09.140Z,94867.59
2018-08-17T09:57:37.984Z,94866.92
2018-08-17T10:00:08.893Z,94862.06
2018-08-17T10:02:42.918Z,94862.48
2018-08-17T10:05:17.125Z,94859.72
2018-08-17T10:07:51.314Z,94859.72
2018-08-17T10:10:22.140Z,94855.08
2018-08-17T10:12:51.817Z,94856.05
2018-08-17T10:15:22.031Z,94852.73
2018-08-17T10:17:50.873Z,94845.77
2018-08-17T10:20:21.399Z,94841.44
2018-08-17T10:22:50.195Z,94840.45
2018-08-17T10:25:23.036Z,94837.16
2018-08-17T10:27:53.264Z,94835.89
2018-08-17T10:30:22.826Z,94841.44
2018-08-17T10:32:53.686Z,94837.55
2018-08-17T10:35:24.614Z,94828.05
2018-08-17T10:37:58.153Z,94831.17
2018-08-17T10:40:27.216Z,94825.52
2018-08-17T10:42:56.232Z,94830.78
2018-08-17T10:45:26.308Z,94822.19
2018-08-17T10:47:55.761Z,94823.78
2018-08-17T10:50:25.967Z,94833.28
2018-08-17T10:52:56.626Z,94832.92
2018-08-17T10:55:39.493Z,94828.14
2018-08-17T10:58:10.047Z,94825.64
2018-08-17T11:00:38.922Z,94843.08
2018-08-17T11:03:07.808Z,94837.12
2018-08-17T11:05:36.655Z,94851.20
2018-08-17T11:08:05.527Z,94848.23
2018-08-17T11:10:34.375Z,94829.77
2018-08-17T11:13:03.389Z,94829.05
2018-08-17T11:15:32.207Z,94828.66
2018-08-17T11:18:01.327Z,94823.57
2018-08-17T11:20:30.235Z,94823.36
2018-08-17T11:22:59.140Z,94826.41
2018-08-17T11:25:28.242Z,94828.02
2018-08-17T11:27:57.143Z,94827.14
2018-08-17T11:30:25.994Z,94827.65
2018-08-17T11:32:55.255Z,94829.77
2018-08-17T11:35:24.197Z,94837.23
2018-08-17T11:37:53.032Z,94830.56
2018-08-17T11:40:21.850Z,94836.45
2018-08-17T11:42:51.403Z,94832.72
2018-08-17T11:45:24.316Z,94828.56
2018-08-17T11:47:53.814Z,94825.22
2018-08-17T11:50:24.022Z,94827.90
2018-08-17T11:52:53.740Z,94825.48
2018-08-17T11:55:24.055Z,94824.22
2018-08-17T11:57:53.046Z,94829.67
2018-08-17T12:00:21.885Z,94826.47
2018-08-17T12:02:50.698Z,94813.57
2018-08-17T12:05:19.515Z,94818.55
2018-08-17T12:07:48.732Z,94818.19
2018-08-17T12:10:17.659Z,94813.72
2018-08-17T12:12:47.032Z,94807.88
2018-08-17T12:15:16.355Z,94808.14
2018-08-17T12:17:45.183Z,94808.40
2018-08-17T12:20:13.991Z,94806.44
2018-08-17T12:22:42.827Z,94802.61
2018-08-17T12:25:11.975Z,94795.19
2018-08-17T12:27:46.866Z,94794.83
2018-08-17T12:30:15.684Z,94791.31
2018-08-17T12:32:44.489Z,94786.06
2018-08-17T12:35:13.371Z,94784.22
2018-08-17T12:37:42.303Z,94785.40
2018-08-17T12:40:11.325Z,94780.87
2018-08-17T12:42:40.292Z,94785.97
2018-08-17T12:45:14.455Z,94789.20
2018-08-17T12:47:43.286Z,94783.55
2018-08-17T12:50:12.160Z,94780.20
2018-08-17T12:52:40.957Z,94778.66
2018-08-17T12:55:09.763Z,94774.61
2018-08-17T12:57:42.004Z,94778.59
2018-08-17T13:00:12.905Z,94784.64
2018-08-17T13:02:41.675Z,94784.09
2018-08-17T13:05:10.508Z,94778.90
2018-08-17T13:07:39.325Z,94781.70
2018-08-17T13:10:08.507Z,94786.84
2018-08-17T13:12:37.299Z,94795.31
2018-08-17T13:15:06.190Z,94798.70
2018-08-17T13:17:40.388Z,94799.42
2018-08-17T13:20:09.216Z,94802.32
2018-08-17T13:22:38.015Z,94815.36
2018-08-17T13:25:06.828Z,94816.98
2018-08-17T13:27:35.663Z,94819.78
2018-08-17T13:30:07.493Z,94824.34
2018-08-17T13:32:36.320Z,94831.26
2018-08-17T13:35:05.084Z,94844.23
2018-08-17T13:37:33.891Z,94846.19
2018-08-17T13:40:02.916Z,94834.19
2018-08-17T13:42:31.859Z,94836.30
2018-08-17T13:45:00.683Z,94832.80
2018-08-17T13:47:29.501Z,94828.11
2018-08-17T13:49:58.278Z,94836.09
2018-08-17T13:52:27.045Z,94840.56
2018-08-17T13:54:55.885Z,94831.64
2018-08-17T13:57:24.644Z,94842.34
2018-08-17T13:59:53.392Z,94821.17
2018-08-17T14:02:22.165Z,94826.88
2018-08-17T14:04:50.969Z,94823.48
2018-08-17T14:07:19.813Z,94821.87
2018-08-17T14:09:48.688Z,94819.99
2018-08-17T14:12:23.858Z,94813.51
2018-08-17T14:14:52.749Z,94807.06
2018-08-17T14:17:21.586Z,94805.42
2018-08-17T14:19:50.391Z,94815.02
2018-08-17T14:22:19.289Z,94801.67
2018-08-17T14:24:48.267Z,94803.28
2018-08-17T14:27:17.120Z,94802.55
2018-08-17T14:29:45.901Z,94797.38
2018-08-17T14:32:14.741Z,94794.06
2018-08-17T14:34:43.515Z,94793.95
2018-08-17T14:37:12.392Z,94789.47
2018-08-17T14:39:41.195Z,94795.39
2018-08-17T14:42:09.972Z,94797.28
2018-08-17T14:44:38.918Z,94802.16
2018-08-17T14:47:07.764Z,94800.77
2018-08-17T14:49:36.579Z,94800.06
2018-08-17T14:52:05.745Z,94797.59
2018-08-17T14:54:34.528Z,94801.77
2018-08-17T14:57:03.369Z,94805.75
2018-08-17T14:59:32.203Z,94801.53
2018-08-17T15:02:00.999Z,94799.98
2018-08-17T15:04:29.762Z,94796.06
2018-08-17T15:06:58.543Z,94798.59
2018-08-17T15:09:27.480Z,94796.83
2018-08-17T15:11:56.295Z,94800.22
2018-08-17T15:14:25.116Z,94802.10
2018-08-17T15:16:53.934Z,94797.66
2018-08-17T15:19:22.720Z,94785.20
2018-08-17T15:21:51.487Z,94786.57
2018-08-17T15:24:20.280Z,94797.75
2018-08-17T15:26:49.072Z,94793.33
2018-08-17T15:29:17.887Z,94792.39
2018-08-17T15:31:46.670Z,94799.44
2018-08-17T15:34:15.405Z,94808.03
2018-08-17T15:36:44.271Z,94811.96
2018-08-17T15:39:13.128Z,94808.34
2018-08-17T15:41:44.503Z,94798.45
2018-08-17T15:44:19.456Z,94797.21
2018-08-17T15:46:48.270Z,94791.09
2018-08-17T15:49:22.191Z,94786.91
2018-08-17T15:51:51.006Z,94801.41
2018-08-17T15:54:20.045Z,94814.24
2018-08-17T15:56:48.869Z,94807.12
2018-08-17T15:59:17.668Z,94803.56
2018-08-17T16:01:46.604Z,94814.01
2018-08-17T16:04:15.487Z,94811.19
2018-08-17T16:06:44.403Z,94807.34
2018-08-17T16:09:13.902Z,94800.84
2018-08-17T16:11:43.055Z,94804.12
2018-08-17T16:14:11.939Z,94805.06
2018-08-17T16:16:40.810Z,94810.97
2018-08-17T16:19:09.642Z,94810.17
2018-08-17T16:21:38.468Z,94813.40
2018-08-17T16:24:07.850Z,94816.77
2018-08-17T16:26:36.696Z,94823.84
2018-08-17T16:29:05.615Z,94814.61
2018-08-17T16:31:40.846Z,94813.13
2018-08-17T16:34:10.284Z,94822.12
2018-08-17T16:36:41.277Z,94822.41
2018-08-17T16:39:13.043Z,94824.93
2018-08-17T16:41:42.242Z,94825.06
2018-08-17T16:44:11.682Z,94824.00
2018-08-17T16:46:41.913Z,94818.09
2018-08-17T16:49:10.824Z,94821.16
2018-08-17T16:51:39.873Z,94826.23
2018-08-17T16:54:08.762Z,94828.80
2018-08-17T16:56:37.765Z,94829.30
2018-08-17T16:59:07.294Z,94830.64
2018-08-17T17:01:36.118Z,94834.75
2018-08-17T17:04:05.076Z,94828.38
2018-08-17T17:06:33.900Z,94828.16
2018-08-17T17:09:05.700Z,94836.22
2018-08-17T17:11:35.075Z,94843.20
2018-08-17T17:14:04.037Z,94839.19
2018-08-17T17:16:45.512Z,94838.09
2018-08-17T17:19:15.817Z,94840.48
2018-08-17T17:21:46.159Z,94840.66
2018-08-17T17:24:15.053Z,94841.87
2018-08-17T17:26:44.725Z,94848.95
2018-08-17T17:29:13.511Z,94846.08
2018-08-17T17:31:43.301Z,94848.26
2018-08-17T17:34:12.335Z,94854.48
2018-08-17T17:36:41.158Z,94851.84
2018-08-17T17:39:12.471Z,94853.79
2018-08-17T17:41:41.972Z,94856.27
2018-08-17T17:44:10.907Z,94854.72
2018-08-17T17:46:40.674Z,94856.87
2018-08-17T17:49:09.983Z,94858.97
2018-08-17T17:51:38.854Z,94862.49
2018-08-17T17:54:07.855Z,94870.55
2018-08-17T17:56:36.694Z,94869.75
2018-08-17T17:59:12.249Z,94877.58
2018-08-17T18:01:41.041Z,94880.25
2018-08-17T18:04:09.878Z,94884.82
2018-08-17T18:06:38.646Z,94887.52
2018-08-17T18:09:07.552Z,94885.09
2018-08-17T18:11:38.078Z,94888.38
2018-08-17T18:14:07.694Z,94882.77
2018-08-17T18:16:36.539Z,94889.53
2018-08-17T18:19:05.473Z,94892.52
2018-08-17T18:21:34.703Z,94895.47
2018-08-17T18:24:08.590Z,94899.49
2018-08-17T18:26:37.829Z,94907.00
2018-08-17T18:29:07.067Z,94910.80
2018-08-17T18:31:35.865Z,94912.67
2018-08-17T18:34:05.112Z,94911.63
2018-08-17T18:36:34.003Z,94909.75
2018-08-17T18:39:02.834Z,94916.69
2018-08-17T18:41:31.651Z,94919.09
2018-08-17T18:44:00.551Z,94917.70
2018-08-17T18:46:29.385Z,94920.11
2018-08-17T18:48:58.343Z,94919.86
2018-08-17T18:51:27.217Z,94926.27
2018-08-17T18:53:56.044Z,94930.02
2018-08-17T18:56:24.882Z,94934.63
2018-08-17T18:58:53.731Z,94928.21
2018-08-17T19:01:22.884Z,94933.88
2018-08-17T19:03:51.674Z,94939.21
2018-08-17T19:06:20.446Z,94931.77
2018-08-17T19:08:49.222Z,94937.16
2018-08-17T19:11:18.096Z,94937.97
2018-08-17T19:13:47.232Z,94942.24
2018-08-17T19:16:16.453Z,94942.51
2018-08-17T19:18:45.395Z,94947.06
2018-08-17T19:21:15.113Z,94943.59
2018-08-17T19:23:43.940Z,94944.12
2018-08-17T19:26:12.849Z,94944.39
2018-08-17T19:28:42.071Z,94947.34
2018-08-17T19:31:10.863Z,94942.83
2018-08-17T19:33:39.698Z,94946.34
2018-08-17T19:36:08.509Z,94944.23
2018-08-17T19:38:40.486Z,94943.20
2018-08-17T19:41:09.654Z,94941.63
2018-08-17T19:43:38.889Z,94941.90
2018-08-17T19:46:07.879Z,94942.16
2018-08-17T19:48:36.824Z,94945.37
2018-08-17T19:51:10.897Z,94939.48
2018-08-17T19:53:39.717Z,94938.18
2018-08-17T19:56:08.519Z,94940.31
2018-08-17T19:58:37.281Z,94942.20
2018-08-17T20:01:06.424Z,94943.83
2018-08-17T20:03:35.250Z,94945.98
2018-08-17T20:06:04.097Z,94942.79
2018-08-17T20:08:32.937Z,94951.07
2018-08-17T20:11:01.770Z,94959.09
2018-08-17T20:13:30.573Z,94959.62
2018-08-17T20:15:59.448Z,94962.55
2018-08-17T20:18:28.370Z,94970.02
2018-08-17T20:20:57.243Z,94967.59
2018-08-17T20:23:26.085Z,94969.45
2018-08-17T20:25:55.149Z,94973.45
2018-08-17T20:28:24.190Z,94976.37
2018-08-17T20:30:52.979Z,94965.16
2018-08-17T20:33:26.899Z,94971.27
2018-08-17T20:35:55.999Z,94971.80
2018-08-17T20:38:24.964Z,94966.72
2018-08-17T20:40:58.212Z,94967.77
2018-08-17T20:43:27.573Z,94968.31
2018-08-17T20:45:56.369Z,94968.59
2018-08-17T20:48:25.180Z,94965.38
2018-08-17T20:50:53.998Z,94960.86
2018-08-17T20:53:22.746Z,94957.08
2018-08-17T20:55:51.518Z,94948.53
2018-08-17T20:58:20.327Z,94952.55
2018-08-17T21:00:49.233Z,94953.34
2018-08-17T21:03:18.019Z,94949.36
2018-08-17T21:05:46.778Z,94950.94
2018-08-17T21:08:15.627Z,94947.75
2018-08-17T21:10:44.486Z,94960.83
2018-08-17T21:13:13.284Z,94991.78
2018-08-17T21:15:42.160Z,94989.34
2018-08-17T21:18:10.951Z,94984.51
2018-08-17T21:20:39.834Z,94979.70
2018-08-17T21:23:09.056Z,94975.16
2018-08-17T21:25:37.815Z,94971.70
2018-08-17T21:28:06.635Z,94981.30
2018-08-17T21:30:35.464Z,94989.03
2018-08-17T21:33:04.717Z,94983.63
2018-08-17T21:35:33.512Z,94975.64
2018-08-17T21:38:02.311Z,94968.94
2018-08-17T21:40:31.294Z,94967.05
2018-08-17T21:43:01.557Z,94969.72
2018-08-17T21:45:30.771Z,94973.45
2018-08-17T21:47:59.608Z,94976.63
2018-08-17T21:50:28.460Z,94984.30
2018-08-17T21:52:57.699Z,94968.03
2018-08-17T21:55:26.460Z,94966.72
2018-08-17T21:57:55.243Z,94969.38
2018-08-17T22:00:31.741Z,94967.47
2018-08-17T22:03:00.625Z,94968.23
2018-08-17T22:05:33.530Z,94972.52
2018-08-17T22:08:02.905Z,94967.73
2018-08-17T22:10:32.446Z,94969.36
2018-08-17T22:13:02.290Z,94967.23
2018-08-17T22:15:31.625Z,94961.09
2018-08-17T22:18:01.779Z,94956.04
2018-08-17T22:20:30.643Z,94957.65
2018-08-17T22:22:59.493Z,94957.65
2018-08-17T22:25:28.424Z,94955.28
2018-08-17T22:27:57.212Z,94957.16
2018-08-17T22:30:27.143Z,94953.15
2018-08-17T22:32:55.889Z,94952.88
2018-08-17T22:35:25.108Z,94944.89
2018-08-17T22:37:54.035Z,94946.50
2018-08-17T22:40:22.845Z,94947.81
2018-08-17T22:42:51.710Z,94939.30
2018-08-17T22:45:20.492Z,94943.86
2018-08-17T22:47:49.261Z,94956.92
2018-08-17T22:50:18.061Z,94959.07
2018-08-17T22:52:46.881Z,94956.65
2018-08-17T22:55:15.723Z,94957.98
2018-08-17T22:57:44.501Z,94961.19
2018-08-17T23:00:25.103Z,94964.09
2018-08-17T23:02:55.523Z,94960.88
2018-08-17T23:05:26.154Z,94960.33
2018-08-17T23:07:55.052Z,94969.37
2018-08-17T23:10:25.406Z,94962.69
2018-08-17T23:12:54.776Z,94963.75
2018-08-17T23:15:23.659Z,94960.52
2018-08-17T23:17:53.678Z,94951.98
2018-08-17T23:20:27.595Z,94955.69
2018-08-17T23:22:57.509Z,94949.53
2018-08-17T23:25:26.446Z,94966.02
2018-08-17T23:27:55.292Z,94962.51
2018-08-17T23:30:24.074Z,94958.23
2018-08-17T23:32:53.232Z,94956.91
2018-08-17T23:35:22.104Z,94959.84
2018-08-17T23:37:50.857Z,94953.72
2018-08-17T23:40:19.736Z,94952.64
2018-08-17T23:42:48.499Z,94950.25
2018-08-17T23:45:18.333Z,94944.92
2018-08-17T23:47:47.202Z,94954.81
2018-08-17T23:50:16.853Z,94944.64
2018-08-17T23:52:45.654Z,94948.94
2018-08-17T23:55:16.567Z,94951.38
2018-08-17T23:57:45.743Z,94950.02
